createdAt,value
2023-04-14T00:00:10.396Z,4.77
2023-04-14T00:01:10.949Z,4.66
2023-04-14T00:02:11.505Z,4.62
2023-04-14T00:03:12.314Z,4.53
2023-04-14T00:04:12.561Z,4.58
2023-04-14T00:05:12.656Z,4.55
2023-04-14T00:06:13.172Z,4.49
2023-04-14T00:07:13.687Z,4.50
2023-04-14T00:08:14.198Z,4.50
2023-04-14T00:09:14.716Z,4.52
2023-04-14T00:10:15.179Z,4.52
2023-04-14T00:11:15.613Z,4.38
2023-04-14T00:12:16.109Z,4.45
2023-04-14T00:13:16.603Z,4.42
2023-04-14T00:14:17.086Z,4.48
2023-04-14T00:15:17.565Z,4.45
2023-04-14T00:16:18.114Z,4.48
2023-04-14T00:17:18.971Z,4.53
2023-04-14T00:18:19.111Z,4.56
2023-04-14T00:19:19.745Z,4.56
2023-04-14T00:20:20.249Z,4.59
2023-04-14T00:21:20.743Z,4.52
2023-04-14T00:22:21.221Z,4.50
2023-04-14T00:23:21.685Z,4.44
2023-04-14T00:24:22.117Z,4.42
2023-04-14T00:25:22.582Z,4.42
2023-04-14T00:26:23.031Z,4.49
2023-04-14T00:27:23.465Z,4.48
2023-04-14T00:28:23.934Z,4.48
2023-04-14T00:29:24.378Z,4.59
2023-04-14T00:30:24.814Z,4.50
2023-04-14T00:31:25.337Z,4.48
2023-04-14T00:32:25.845Z,4.41
2023-04-14T00:33:26.357Z,4.45
2023-04-14T00:34:26.824Z,4.62
2023-04-14T00:35:27.327Z,4.70
2023-04-14T00:36:27.806Z,4.75
2023-04-14T00:37:28.274Z,4.82
2023-04-14T00:38:28.745Z,4.78
2023-04-14T00:39:29.242Z,4.80
2023-04-14T00:40:29.741Z,4.71
2023-04-14T00:41:30.239Z,4.90
2023-04-14T00:42:30.740Z,4.96
2023-04-14T00:43:31.249Z,4.99
2023-04-14T00:44:31.735Z,4.94
2023-04-14T00:45:32.229Z,4.96
2023-04-14T00:46:32.769Z,5.00
2023-04-14T00:47:33.326Z,5.07
2023-04-14T00:48:33.863Z,4.97
2023-04-14T00:49:34.373Z,4.89
2023-04-14T00:50:34.844Z,4.89
2023-04-14T00:51:35.336Z,4.89
2023-04-14T00:52:35.829Z,4.93
2023-04-14T00:53:36.311Z,4.90
2023-04-14T00:54:36.792Z,4.93
2023-04-14T00:55:37.267Z,4.89
2023-04-14T00:56:37.731Z,4.74
2023-04-14T00:57:38.184Z,4.77
2023-04-14T00:58:38.695Z,4.89
2023-04-14T00:59:39.187Z,4.99
2023-04-14T01:00:39.659Z,5.00
2023-04-14T01:01:40.179Z,5.02
2023-04-14T01:02:41.156Z,5.10
2023-04-14T01:03:41.556Z,5.02
2023-04-14T01:04:52.551Z,4.99
2023-04-14T01:05:41.738Z,4.94
2023-04-14T01:06:42.242Z,5.04
2023-04-14T01:07:42.735Z,5.04
2023-04-14T01:08:43.240Z,4.87
2023-04-14T01:09:43.753Z,4.94
2023-04-14T01:10:44.245Z,4.94
2023-04-14T01:11:44.727Z,4.94
2023-04-14T01:12:45.220Z,4.92
2023-04-14T01:13:45.688Z,4.93
2023-04-14T01:14:46.168Z,4.94
2023-04-14T01:15:46.671Z,5.04
2023-04-14T01:16:47.173Z,5.04
2023-04-14T01:17:47.710Z,5.08
2023-04-14T01:18:48.236Z,5.04
2023-04-14T01:19:48.724Z,5.04
2023-04-14T01:20:49.215Z,5.04
2023-04-14T01:21:49.698Z,4.96
2023-04-14T01:22:50.178Z,4.97
2023-04-14T01:23:51.674Z,4.96
2023-04-14T01:24:50.958Z,4.92
2023-04-14T01:25:51.454Z,5.07
2023-04-14T01:26:51.881Z,4.93
2023-04-14T01:27:52.315Z,4.96
2023-04-14T01:28:52.806Z,5.02
2023-04-14T01:29:53.271Z,5.02
2023-04-14T01:30:53.741Z,5.05
2023-04-14T01:31:54.240Z,5.08
2023-04-14T01:32:54.793Z,5.07
2023-04-14T01:33:55.278Z,5.10
2023-04-14T01:34:55.757Z,5.15
2023-04-14T01:35:56.221Z,5.18
2023-04-14T01:36:56.670Z,5.12
2023-04-14T01:37:57.115Z,5.11
2023-04-14T01:38:57.660Z,5.07
2023-04-14T01:39:58.180Z,4.94
2023-04-14T01:40:58.620Z,4.84
2023-04-14T01:41:59.063Z,4.89
2023-04-14T01:42:59.510Z,4.75
2023-04-14T01:43:59.964Z,4.62
2023-04-14T01:45:00.427Z,4.58
2023-04-14T01:46:00.949Z,4.68
2023-04-14T01:47:01.438Z,4.77
2023-04-14T01:48:01.950Z,4.84
2023-04-14T01:49:02.711Z,4.84
2023-04-14T01:50:02.743Z,4.70
2023-04-14T01:51:03.183Z,4.63
2023-04-14T01:52:03.609Z,4.73
2023-04-14T01:53:04.041Z,4.70
2023-04-14T01:54:04.509Z,4.66
2023-04-14T01:55:04.970Z,4.63
2023-04-14T01:56:05.411Z,4.49
2023-04-14T01:57:05.838Z,4.56
2023-04-14T01:58:06.277Z,4.44
2023-04-14T01:59:06.705Z,4.42
2023-04-14T02:00:07.125Z,4.40
2023-04-14T02:01:07.664Z,4.35
2023-04-14T02:02:08.191Z,4.49
2023-04-14T02:03:08.714Z,4.42
2023-04-14T02:04:09.212Z,4.35
2023-04-14T02:05:09.663Z,4.37
2023-04-14T02:06:10.095Z,4.37
2023-04-14T02:07:10.510Z,4.34
2023-04-14T02:08:10.955Z,4.32
2023-04-14T02:09:11.370Z,4.28
2023-04-14T02:10:11.794Z,4.31
2023-04-14T02:11:12.238Z,4.37
2023-04-14T02:12:12.704Z,4.44
2023-04-14T02:13:13.170Z,4.42
2023-04-14T02:14:13.610Z,4.38
2023-04-14T02:15:14.048Z,4.44
2023-04-14T02:16:14.514Z,4.37
2023-04-14T02:17:14.966Z,4.30
2023-04-14T02:18:15.402Z,4.26
2023-04-14T02:19:15.828Z,4.19
2023-04-14T02:20:16.262Z,4.31
2023-04-14T02:21:16.687Z,4.26
2023-04-14T02:22:17.136Z,4.22
2023-04-14T02:23:17.576Z,4.17
2023-04-14T02:24:17.995Z,4.17
2023-04-14T02:25:18.433Z,4.17
2023-04-14T02:26:18.863Z,4.16
2023-04-14T02:27:19.300Z,4.16
2023-04-14T02:28:19.738Z,4.20
2023-04-14T02:29:20.168Z,4.32
2023-04-14T02:30:20.590Z,4.31
2023-04-14T02:31:21.119Z,4.37
2023-04-14T02:32:21.144Z,4.37
2023-04-14T02:33:21.644Z,4.41
2023-04-14T02:34:22.100Z,4.38
2023-04-14T02:35:22.524Z,4.35
2023-04-14T02:36:22.946Z,4.24
2023-04-14T02:37:23.392Z,4.31
2023-04-14T02:38:23.918Z,4.23
2023-04-14T02:39:24.462Z,4.24
2023-04-14T02:40:24.897Z,4.31
2023-04-14T02:41:25.341Z,4.22
2023-04-14T02:42:25.785Z,4.37
2023-04-14T02:43:26.235Z,4.37
2023-04-14T02:44:26.678Z,4.35
2023-04-14T02:45:27.116Z,4.40
2023-04-14T02:46:27.584Z,4.38
2023-04-14T02:47:28.067Z,4.30
2023-04-14T02:48:28.484Z,4.19
2023-04-14T02:49:28.913Z,4.10
2023-04-14T02:50:29.322Z,4.13
2023-04-14T02:51:29.753Z,4.16
2023-04-14T02:52:30.192Z,4.24
2023-04-14T02:53:30.620Z,4.26
2023-04-14T02:54:31.035Z,4.28
2023-04-14T02:55:31.479Z,4.30
2023-04-14T02:56:31.966Z,4.28
2023-04-14T02:57:32.422Z,4.26
2023-04-14T02:58:32.853Z,4.20
2023-04-14T02:59:33.281Z,4.16
2023-04-14T03:00:33.736Z,4.12
2023-04-14T03:01:34.284Z,4.12
2023-04-14T03:02:34.821Z,4.13
2023-04-14T03:03:35.442Z,4.16
2023-04-14T03:04:35.428Z,4.22
2023-04-14T03:05:35.929Z,4.24
2023-04-14T03:06:36.378Z,4.31
2023-04-14T03:07:36.829Z,4.23
2023-04-14T03:08:37.284Z,4.14
2023-04-14T03:09:37.723Z,4.13
2023-04-14T03:10:38.156Z,4.19
2023-04-14T03:11:38.593Z,4.13
2023-04-14T03:12:39.022Z,4.13
2023-04-14T03:13:39.455Z,4.12
2023-04-14T03:14:39.894Z,4.05
2023-04-14T03:15:40.408Z,4.12
2023-04-14T03:16:40.855Z,4.14
2023-04-14T03:17:41.348Z,4.12
2023-04-14T03:18:41.789Z,4.17
2023-04-14T03:19:42.238Z,4.23
2023-04-14T03:20:42.735Z,4.14
2023-04-14T03:21:43.171Z,4.19
2023-04-14T03:22:43.721Z,4.14
2023-04-14T03:23:44.138Z,4.10
2023-04-14T03:24:44.650Z,4.13
2023-04-14T03:25:45.097Z,4.04
2023-04-14T03:26:45.518Z,3.98
2023-04-14T03:27:45.963Z,4.06
2023-04-14T03:28:46.516Z,4.13
2023-04-14T03:29:46.937Z,4.06
2023-04-14T03:30:47.346Z,4.02
2023-04-14T03:31:47.832Z,4.04
2023-04-14T03:32:48.360Z,4.02
2023-04-14T03:33:48.829Z,4.01
2023-04-14T03:34:49.300Z,3.99
2023-04-14T03:35:49.736Z,3.81
2023-04-14T03:36:50.180Z,3.94
2023-04-14T03:37:50.605Z,3.96
2023-04-14T03:38:51.043Z,4.02
2023-04-14T03:39:51.477Z,4.10
2023-04-14T03:40:51.945Z,4.12
2023-04-14T03:41:52.403Z,4.10
2023-04-14T03:42:52.855Z,3.98
2023-04-14T03:43:53.323Z,4.02
2023-04-14T03:44:53.817Z,4.04
2023-04-14T03:45:54.305Z,4.05
2023-04-14T03:46:54.802Z,3.94
2023-04-14T03:47:55.221Z,3.92
2023-04-14T03:48:55.716Z,3.83
2023-04-14T03:49:56.158Z,3.81
2023-04-14T03:50:56.633Z,3.69
2023-04-14T03:51:57.177Z,3.69
2023-04-14T03:52:57.702Z,3.56
2023-04-14T03:53:58.339Z,3.63
2023-04-14T03:54:58.891Z,3.63
2023-04-14T03:55:59.438Z,3.70
2023-04-14T03:56:59.962Z,3.73
2023-04-14T03:58:00.500Z,3.68
2023-04-14T03:59:01.173Z,3.80
2023-04-14T04:00:01.289Z,3.86
2023-04-14T04:01:01.814Z,3.84
2023-04-14T04:02:02.387Z,3.77
2023-04-14T04:03:03.078Z,3.65
2023-04-14T04:04:03.228Z,3.66
2023-04-14T04:05:03.318Z,3.60
2023-04-14T04:06:03.886Z,3.60
2023-04-14T04:07:04.375Z,3.59
2023-04-14T04:08:04.821Z,3.42
2023-04-14T04:09:05.276Z,3.51
2023-04-14T04:10:05.734Z,3.53
2023-04-14T04:11:06.249Z,3.56
2023-04-14T04:12:06.781Z,3.58
2023-04-14T04:13:07.333Z,3.66
2023-04-14T04:14:07.866Z,3.59
2023-04-14T04:15:08.432Z,3.70
2023-04-14T04:16:09.009Z,3.73
2023-04-14T04:17:09.618Z,3.66
2023-04-14T04:18:10.204Z,3.70
2023-04-14T04:19:11.273Z,3.68
2023-04-14T04:20:11.188Z,3.66
2023-04-14T04:21:11.766Z,3.69
2023-04-14T04:22:12.367Z,3.62
2023-04-14T04:23:12.927Z,3.74
2023-04-14T04:24:13.531Z,3.78
2023-04-14T04:25:14.129Z,3.78
2023-04-14T04:26:14.746Z,3.73
2023-04-14T04:27:26.664Z,3.68
2023-04-14T04:28:15.569Z,3.69
2023-04-14T04:29:16.145Z,3.73
2023-04-14T04:30:16.713Z,3.69
2023-04-14T04:31:17.264Z,3.77
2023-04-14T04:32:17.961Z,3.70
2023-04-14T04:33:18.079Z,3.77
2023-04-14T04:34:18.655Z,3.78
2023-04-14T04:35:19.232Z,3.74
2023-04-14T04:36:19.803Z,3.78
2023-04-14T04:37:20.412Z,3.76
2023-04-14T04:38:21.000Z,3.51
2023-04-14T04:39:21.577Z,3.69
2023-04-14T04:40:22.164Z,3.68
2023-04-14T04:41:22.760Z,3.77
2023-04-14T04:42:23.355Z,3.73
2023-04-14T04:43:23.904Z,3.80
2023-04-14T04:44:24.458Z,3.70
2023-04-14T04:45:25.002Z,3.88
2023-04-14T04:46:25.564Z,3.95
2023-04-14T04:47:26.206Z,3.91
2023-04-14T04:48:26.239Z,3.84
2023-04-14T04:49:26.818Z,3.92
2023-04-14T04:50:27.404Z,3.81
2023-04-14T04:51:27.986Z,3.88
2023-04-14T04:52:28.572Z,3.94
2023-04-14T04:53:29.125Z,3.94
2023-04-14T04:54:29.675Z,3.88
2023-04-14T04:55:30.213Z,3.88
2023-04-14T04:56:30.751Z,3.83
2023-04-14T04:57:31.302Z,3.77
2023-04-14T04:58:31.716Z,3.86
2023-04-14T04:59:32.261Z,3.94
2023-04-14T05:00:32.821Z,3.99
2023-04-14T05:01:33.375Z,3.96
2023-04-14T05:02:34.004Z,4.01
2023-04-14T05:03:34.080Z,4.04
2023-04-14T05:04:34.651Z,4.12
2023-04-14T05:05:35.212Z,4.17
2023-04-14T05:06:35.799Z,4.19
2023-04-14T05:07:36.354Z,4.10
2023-04-14T05:08:36.929Z,4.22
2023-04-14T05:09:37.500Z,4.20
2023-04-14T05:10:38.125Z,4.08
2023-04-14T05:11:38.697Z,3.96
2023-04-14T05:12:39.240Z,3.92
2023-04-14T05:13:39.789Z,3.88
2023-04-14T05:14:40.350Z,3.84
2023-04-14T05:15:40.917Z,3.87
2023-04-14T05:16:41.463Z,3.83
2023-04-14T05:17:42.038Z,3.73
2023-04-14T05:18:42.577Z,3.83
2023-04-14T05:19:43.141Z,3.99
2023-04-14T05:20:43.684Z,4.14
2023-04-14T05:21:44.251Z,4.22
2023-04-14T05:22:44.818Z,4.22
2023-04-14T05:23:45.377Z,4.17
2023-04-14T05:24:45.917Z,4.14
2023-04-14T05:25:47.531Z,3.99
2023-04-14T05:26:57.709Z,4.06
2023-04-14T05:27:47.290Z,3.98
2023-04-14T05:28:47.842Z,3.91
2023-04-14T05:29:48.366Z,3.77
2023-04-14T05:30:48.921Z,3.77
2023-04-14T05:31:49.555Z,3.87
2023-04-14T05:32:50.179Z,4.01
2023-04-14T05:33:50.752Z,4.19
2023-04-14T05:34:51.288Z,4.24
2023-04-14T05:35:51.843Z,4.31
2023-04-14T05:36:52.401Z,4.38
2023-04-14T05:37:52.953Z,4.40
2023-04-14T05:38:53.522Z,4.45
2023-04-14T05:39:54.056Z,4.40
2023-04-14T05:40:54.597Z,4.42
2023-04-14T05:41:55.145Z,4.35
2023-04-14T05:42:57.040Z,4.41
2023-04-14T05:43:55.979Z,4.41
2023-04-14T05:44:56.523Z,4.42
2023-04-14T05:45:57.081Z,4.44
2023-04-14T05:46:57.753Z,4.42
2023-04-14T05:47:57.865Z,4.52
2023-04-14T05:48:58.474Z,4.49
2023-04-14T05:49:58.524Z,4.56
2023-04-14T05:50:59.103Z,4.62
2023-04-14T05:51:59.649Z,4.66
2023-04-14T05:53:00.217Z,4.67
2023-04-14T05:54:01.080Z,4.58
2023-04-14T05:55:01.317Z,4.67
2023-04-14T05:56:01.879Z,4.68
2023-04-14T05:57:02.458Z,4.86
2023-04-14T05:58:03.026Z,4.90
2023-04-14T05:59:03.596Z,4.97
2023-04-14T06:00:04.149Z,4.87
2023-04-14T06:01:04.705Z,5.00
2023-04-14T06:02:05.358Z,4.94
2023-04-14T06:03:05.605Z,4.82
2023-04-14T06:04:06.460Z,4.84
2023-04-14T06:05:06.566Z,4.73
2023-04-14T06:06:06.630Z,4.66
2023-04-14T06:07:07.193Z,4.67
2023-04-14T06:08:07.768Z,4.63
2023-04-14T06:09:08.340Z,4.73
2023-04-14T06:10:08.907Z,4.75
2023-04-14T06:11:09.461Z,4.86
2023-04-14T06:12:10.011Z,4.92
2023-04-14T06:13:10.568Z,4.94
2023-04-14T06:14:11.139Z,5.00
2023-04-14T06:15:11.701Z,5.08
2023-04-14T06:16:12.281Z,4.99
2023-04-14T06:17:12.852Z,4.75
2023-04-14T06:18:13.421Z,4.66
2023-04-14T06:19:13.997Z,4.67
2023-04-14T06:20:14.585Z,4.70
2023-04-14T06:21:15.154Z,4.56
2023-04-14T06:22:15.716Z,4.66
2023-04-14T06:23:16.270Z,4.68
2023-04-14T06:24:16.813Z,4.73
2023-04-14T06:25:17.384Z,4.60
2023-04-14T06:26:17.967Z,4.63
2023-04-14T06:27:18.513Z,4.59
2023-04-14T06:28:19.059Z,4.66
2023-04-14T06:29:19.607Z,4.59
2023-04-14T06:30:20.189Z,4.58
2023-04-14T06:31:20.846Z,4.58
2023-04-14T06:32:21.251Z,4.62
2023-04-14T06:33:21.384Z,4.60
2023-04-14T06:34:21.940Z,4.68
2023-04-14T06:35:32.436Z,4.87
2023-04-14T06:36:22.738Z,4.94
2023-04-14T06:37:23.324Z,4.89
2023-04-14T06:38:23.900Z,4.87
2023-04-14T06:39:24.474Z,4.60
2023-04-14T06:40:25.041Z,4.80
2023-04-14T06:41:25.610Z,4.93
2023-04-14T06:42:26.202Z,5.00
2023-04-14T06:43:26.774Z,5.10
2023-04-14T06:44:27.339Z,5.17
2023-04-14T06:45:27.897Z,5.17
2023-04-14T06:46:28.610Z,5.25
2023-04-14T06:47:28.675Z,5.25
2023-04-14T06:48:29.243Z,5.28
2023-04-14T06:49:29.823Z,5.36
2023-04-14T06:50:30.390Z,5.53
2023-04-14T06:51:30.967Z,5.59
2023-04-14T06:52:31.546Z,5.39
2023-04-14T06:53:32.101Z,5.26
2023-04-14T06:54:32.661Z,5.08
2023-04-14T06:55:33.215Z,4.99
2023-04-14T06:56:33.779Z,5.02
2023-04-14T06:57:34.353Z,5.08
2023-04-14T06:58:35.002Z,5.21
2023-04-14T06:59:35.020Z,5.12
2023-04-14T07:00:35.577Z,5.04
2023-04-14T07:01:36.189Z,5.00
2023-04-14T07:02:36.854Z,4.97
2023-04-14T07:03:37.037Z,4.93
2023-04-14T07:04:37.165Z,4.92
2023-04-14T07:05:37.226Z,4.93
2023-04-14T07:06:37.784Z,5.02
2023-04-14T07:07:38.331Z,4.96
2023-04-14T07:08:38.880Z,4.97
2023-04-14T07:09:39.485Z,5.05
2023-04-14T07:10:40.831Z,5.21
2023-04-14T07:11:40.331Z,5.21
2023-04-14T07:12:40.878Z,5.33
2023-04-14T07:13:41.423Z,5.53
2023-04-14T07:14:41.987Z,5.65
2023-04-14T07:15:42.606Z,5.71
2023-04-14T07:16:43.196Z,5.73
2023-04-14T07:17:43.846Z,5.83
2023-04-14T07:18:44.422Z,5.82
2023-04-14T07:19:44.959Z,5.99
2023-04-14T07:20:45.467Z,6.22
2023-04-14T07:21:45.977Z,6.30
2023-04-14T07:22:46.497Z,6.41
2023-04-14T07:23:47.014Z,6.42
2023-04-14T07:24:47.548Z,6.45
2023-04-14T07:25:48.079Z,6.59
2023-04-14T07:26:48.583Z,6.57
2023-04-14T07:28:02.136Z,6.74
2023-04-14T07:28:49.245Z,6.72
2023-04-14T07:29:49.733Z,6.79
2023-04-14T07:30:50.320Z,6.87
2023-04-14T07:31:51.006Z,6.85
2023-04-14T07:32:51.059Z,6.85
2023-04-14T07:33:51.550Z,6.97
2023-04-14T07:34:52.058Z,7.18
2023-04-14T07:36:02.006Z,7.42
2023-04-14T07:36:52.744Z,7.36
2023-04-14T07:37:53.206Z,7.38
2023-04-14T16:00:57.368Z,16.13
2023-04-14T16:01:58.032Z,15.75
2023-04-14T16:02:58.181Z,15.79
2023-04-14T16:03:58.232Z,15.57
2023-04-14T16:04:58.781Z,15.09
2023-04-14T16:05:59.300Z,14.82
2023-04-14T16:06:59.817Z,14.96
2023-04-14T16:08:00.325Z,15.44
2023-04-14T16:09:01.013Z,15.62
2023-04-14T16:10:01.060Z,16.01
2023-04-14T16:11:01.629Z,16.15
2023-04-14T16:12:02.150Z,16.00
2023-04-14T16:13:02.670Z,15.86
2023-04-14T16:14:03.509Z,15.92
2023-04-14T16:15:03.632Z,16.01
2023-04-14T16:16:04.157Z,15.97
2023-04-14T16:17:04.659Z,15.94
2023-04-14T16:18:05.159Z,16.04
2023-04-14T16:19:05.669Z,16.09
2023-04-14T16:20:06.192Z,16.28
2023-04-14T16:21:06.706Z,16.39
2023-04-14T16:22:07.217Z,16.24
2023-04-14T16:23:07.721Z,15.94
2023-04-14T16:24:08.286Z,15.75
2023-04-14T16:25:08.817Z,15.54
2023-04-14T16:26:09.326Z,15.51
2023-04-14T16:27:09.836Z,15.58
2023-04-14T16:28:10.347Z,15.54
2023-04-14T16:29:10.891Z,15.55
2023-04-14T16:30:11.379Z,15.37
2023-04-14T16:31:11.890Z,15.59
2023-04-14T16:32:12.388Z,15.54
2023-04-14T16:33:13.200Z,15.46
2023-04-14T16:34:13.284Z,15.49
2023-04-14T16:35:13.816Z,15.44
2023-04-14T16:36:14.332Z,15.33
2023-04-14T16:37:14.832Z,15.27
2023-04-14T16:38:15.332Z,15.42
2023-04-14T16:39:15.858Z,15.22
2023-04-14T16:40:16.344Z,15.22
2023-04-14T16:41:16.859Z,15.15
2023-04-14T16:42:17.350Z,15.03
2023-04-14T16:43:17.869Z,14.99
2023-04-14T16:44:18.401Z,14.97
2023-04-14T16:45:19.728Z,14.86
2023-04-14T16:46:19.088Z,14.84
2023-04-14T16:47:20.621Z,14.94
2023-04-14T16:48:19.918Z,14.88
2023-04-14T16:49:20.407Z,14.88
2023-04-14T16:50:20.897Z,14.94
2023-04-14T16:51:21.438Z,14.85
2023-04-14T16:52:21.981Z,14.73
2023-04-14T16:53:22.504Z,14.59
2023-04-14T16:54:23.091Z,14.47
2023-04-14T16:55:23.664Z,14.33
2023-04-14T16:56:24.192Z,14.28
2023-04-14T16:57:24.726Z,14.33
2023-04-14T16:58:25.246Z,14.18
2023-04-14T16:59:25.782Z,14.07
2023-04-14T17:00:26.284Z,13.92
2023-04-14T17:01:26.894Z,13.95
2023-04-14T17:02:27.083Z,13.97
2023-04-14T17:03:27.261Z,14.05
2023-04-14T17:04:27.515Z,13.92
2023-04-14T17:05:27.667Z,13.75
2023-04-14T17:06:28.199Z,13.65
2023-04-14T17:07:28.674Z,13.65
2023-04-14T17:08:29.163Z,13.62
2023-04-14T17:09:29.645Z,13.60
2023-04-14T17:10:30.122Z,13.57
2023-04-14T17:11:30.627Z,13.49
2023-04-14T17:12:31.138Z,13.53
2023-04-14T17:13:31.710Z,13.33
2023-04-14T17:14:32.178Z,13.15
2023-04-14T17:15:32.680Z,13.19
2023-04-14T17:16:33.305Z,13.25
2023-04-14T17:17:33.284Z,13.25
2023-04-14T17:18:33.816Z,13.25
2023-04-14T17:19:34.402Z,13.11
2023-04-14T17:20:34.915Z,13.04
2023-04-14T17:21:35.423Z,12.95
2023-04-14T17:22:35.920Z,12.95
2023-04-14T17:23:36.427Z,12.97
2023-04-14T17:24:36.935Z,13.01
2023-04-14T17:25:37.441Z,12.87
2023-04-14T17:26:37.983Z,12.83
2023-04-14T17:27:38.538Z,12.85
2023-04-14T17:28:39.057Z,12.82
2023-04-14T17:29:39.590Z,12.82
2023-04-14T17:30:40.108Z,12.85
2023-04-14T17:31:40.653Z,12.86
2023-04-14T17:32:41.243Z,12.90
2023-04-14T17:33:41.805Z,12.79
2023-04-14T17:34:42.329Z,12.65
2023-04-14T17:35:42.838Z,12.37
2023-04-14T17:36:43.351Z,12.20
2023-04-14T17:37:43.880Z,12.12
2023-04-14T17:38:44.409Z,12.13
2023-04-14T17:39:44.943Z,12.25
2023-04-14T17:40:45.485Z,12.25
2023-04-14T17:41:46.063Z,12.27
2023-04-14T17:42:46.598Z,12.22
2023-04-14T17:43:47.134Z,12.25
2023-04-14T17:44:47.666Z,12.24
2023-04-14T17:45:48.235Z,12.25
2023-04-14T17:46:48.801Z,12.24
2023-04-14T17:47:49.365Z,12.22
2023-04-14T17:48:49.934Z,12.07
2023-04-14T17:49:50.460Z,12.02
2023-04-14T17:50:50.989Z,11.99
2023-04-14T17:51:51.507Z,11.94
2023-04-14T17:52:52.143Z,11.95
2023-04-14T17:53:52.776Z,11.95
2023-04-14T17:54:53.404Z,11.95
2023-04-14T17:55:53.923Z,11.86
2023-04-14T17:56:54.453Z,11.99
2023-04-14T17:57:54.993Z,12.03
2023-04-14T17:58:55.542Z,11.84
2023-04-14T17:59:56.134Z,11.86
2023-04-14T18:00:56.727Z,11.87
2023-04-14T18:01:57.315Z,11.75
2023-04-14T18:02:57.900Z,11.70
2023-04-14T18:03:58.481Z,11.60
2023-04-14T18:04:59.079Z,11.52
2023-04-14T18:05:59.633Z,11.47
2023-04-14T18:07:00.208Z,11.47
2023-04-14T18:08:00.786Z,11.44
2023-04-14T18:09:01.540Z,11.41
2023-04-14T18:10:01.698Z,11.50
2023-04-14T18:11:02.247Z,11.50
2023-04-14T18:12:02.769Z,11.47
2023-04-14T18:13:03.280Z,11.45
2023-04-14T18:14:04.313Z,11.37
2023-04-14T18:15:04.051Z,11.26
2023-04-14T18:16:04.593Z,11.10
2023-04-14T18:17:05.229Z,11.02
2023-04-14T18:18:05.808Z,11.08
2023-04-14T18:19:06.375Z,10.97
2023-04-14T18:20:06.907Z,10.94
2023-04-14T18:21:07.430Z,11.04
2023-04-14T18:22:07.953Z,10.99
2023-04-14T18:23:08.488Z,10.89
2023-04-14T18:25:08.133Z,10.86
2023-04-14T18:28:09.308Z,10.90
2023-04-14T18:29:11.015Z,10.89
2023-04-14T18:30:11.570Z,10.87
2023-04-14T18:31:13.546Z,10.90
2023-04-14T18:32:12.601Z,10.92
2023-04-14T18:33:13.163Z,10.92
2023-04-14T18:34:13.691Z,10.92
2023-04-14T18:35:14.248Z,10.90
2023-04-14T18:36:14.794Z,10.96
2023-04-14T18:37:15.343Z,10.90
2023-04-14T18:38:15.897Z,10.78
2023-04-14T18:39:16.463Z,10.74
2023-04-14T18:40:17.105Z,10.75
2023-04-14T18:41:17.645Z,10.86
2023-04-14T18:42:18.186Z,10.87
2023-04-14T18:43:18.727Z,10.81
2023-04-14T18:44:19.282Z,10.81
2023-04-14T18:45:19.817Z,10.76
2023-04-14T18:46:20.420Z,10.81
2023-04-14T18:47:21.024Z,10.74
2023-04-14T18:48:21.561Z,10.78
2023-04-14T18:49:22.151Z,10.69
2023-04-14T18:50:22.706Z,10.67
2023-04-14T18:51:23.262Z,10.75
2023-04-14T18:52:23.880Z,10.72
2023-04-14T18:53:24.422Z,10.67
2023-04-14T18:54:24.975Z,10.60
2023-04-14T18:55:25.505Z,10.59
2023-04-14T18:56:26.167Z,10.63
2023-04-14T18:57:26.742Z,10.60
2023-04-14T18:58:27.332Z,10.60
2023-04-14T18:59:27.910Z,10.57
2023-04-14T19:00:28.480Z,10.57
2023-04-14T19:01:29.046Z,10.51
2023-04-14T19:02:29.723Z,10.41
2023-04-14T19:03:29.829Z,10.42
2023-04-14T19:04:30.478Z,10.44
2023-04-14T19:05:31.127Z,10.40
2023-04-14T19:06:31.672Z,10.19
2023-04-14T19:07:32.253Z,10.22
2023-04-14T19:08:32.900Z,10.15
2023-04-14T19:09:33.503Z,10.20
2023-04-14T19:10:34.082Z,10.26
2023-04-14T19:11:34.651Z,10.28
2023-04-14T19:12:35.216Z,10.25
2023-04-14T19:13:35.805Z,10.26
2023-04-14T19:14:36.365Z,10.19
2023-04-14T19:15:36.918Z,10.20
2023-04-14T19:16:37.512Z,10.19
2023-04-14T19:17:38.101Z,10.07
2023-04-14T19:18:38.656Z,10.12
2023-04-14T19:19:39.201Z,10.09
2023-04-14T19:20:39.727Z,10.02
2023-04-14T19:21:40.259Z,9.91
2023-04-14T19:22:40.835Z,10.04
2023-04-14T19:23:41.389Z,9.95
2023-04-14T19:24:41.910Z,9.95
2023-04-14T19:25:42.451Z,9.94
2023-04-14T19:26:43.000Z,9.80
2023-04-14T19:27:43.666Z,9.83
2023-04-14T19:28:44.237Z,9.86
2023-04-14T19:29:44.774Z,9.82
2023-04-14T19:30:45.294Z,9.80
2023-04-14T19:31:45.844Z,9.89
2023-04-14T19:32:46.460Z,9.94
2023-04-14T19:33:46.991Z,9.79
2023-04-14T19:34:47.507Z,9.89
2023-04-14T19:35:48.021Z,9.77
2023-04-14T19:36:48.532Z,9.69
2023-04-14T19:37:49.056Z,9.65
2023-04-14T19:38:49.628Z,9.43
2023-04-14T19:39:50.182Z,9.46
2023-04-14T19:40:50.729Z,9.56
2023-04-14T19:41:51.237Z,9.47
2023-04-14T19:42:51.735Z,9.41
2023-04-14T19:43:52.295Z,9.29
2023-04-14T19:44:52.816Z,9.14
2023-04-14T19:45:53.326Z,9.06
2023-04-14T19:46:53.879Z,8.95
2023-04-14T19:47:54.452Z,8.87
2023-04-14T19:48:55.018Z,8.92
2023-04-14T19:49:55.569Z,8.97
2023-04-14T19:50:56.078Z,9.14
2023-04-14T19:51:56.618Z,9.25
2023-04-14T19:52:57.152Z,9.18
2023-04-14T19:53:57.672Z,8.88
2023-04-14T19:54:58.318Z,8.53
2023-04-14T19:55:58.838Z,8.19
2023-04-14T19:56:59.393Z,8.08
2023-04-14T19:57:59.972Z,8.13
2023-04-14T19:59:00.709Z,8.24
2023-04-14T20:00:00.839Z,8.31
2023-04-14T20:01:01.473Z,8.49
2023-04-14T20:02:02.135Z,8.58
2023-04-14T20:03:02.758Z,8.41
2023-04-14T20:04:09.878Z,8.51
2023-04-14T20:05:03.541Z,8.51
2023-04-14T20:06:04.083Z,8.41
2023-04-14T20:07:04.614Z,8.33
2023-04-14T20:08:05.143Z,8.20
2023-04-14T20:09:05.678Z,7.91
2023-04-14T20:10:06.201Z,7.95
2023-04-14T20:11:06.735Z,7.91
2023-04-14T20:12:07.256Z,7.93
2023-04-14T20:13:07.785Z,7.93
2023-04-14T20:14:08.320Z,8.06
2023-04-14T20:15:08.848Z,8.20
2023-04-14T20:16:09.398Z,8.23
2023-04-14T20:17:09.940Z,8.15
2023-04-14T20:18:10.465Z,8.00
2023-04-14T20:19:11.687Z,7.85
2023-04-14T20:20:11.648Z,7.48
2023-04-14T20:21:12.227Z,7.29
2023-04-14T20:22:12.781Z,7.14
2023-04-14T20:23:13.321Z,7.11
2023-04-14T20:24:13.840Z,7.18
2023-04-14T20:25:14.381Z,7.21
2023-04-14T20:26:14.897Z,7.25
2023-04-14T20:27:15.430Z,7.18
2023-04-14T20:28:15.963Z,7.15
2023-04-14T20:29:16.488Z,7.31
2023-04-14T20:30:17.027Z,7.36
2023-04-14T20:31:17.619Z,7.35
2023-04-14T20:32:18.215Z,7.36
2023-04-14T20:33:18.789Z,7.31
2023-04-14T20:34:19.343Z,7.18
2023-04-14T20:35:19.924Z,7.02
2023-04-14T20:36:20.478Z,6.82
2023-04-14T20:37:21.017Z,6.69
2023-04-14T20:38:21.573Z,6.89
2023-04-14T20:39:22.122Z,6.81
2023-04-14T20:40:22.670Z,6.81
2023-04-14T20:41:23.199Z,6.85
2023-04-14T20:42:23.735Z,6.85
2023-04-14T20:43:24.277Z,6.89
2023-04-14T20:44:24.818Z,6.89
2023-04-14T20:45:25.435Z,7.00
2023-04-14T20:46:26.071Z,6.96
2023-04-14T20:47:26.735Z,6.95
2023-04-14T20:48:27.314Z,6.92
2023-04-14T20:49:27.851Z,6.97
2023-04-14T20:50:28.443Z,6.93
2023-04-14T20:51:29.015Z,6.84
2023-04-14T20:52:29.564Z,6.79
2023-04-14T20:53:30.211Z,6.79
2023-04-14T20:54:30.781Z,6.88
2023-04-14T20:55:31.319Z,6.95
2023-04-14T20:56:31.910Z,6.99
2023-04-14T20:57:32.450Z,6.88
2023-04-14T20:58:32.978Z,6.72
2023-04-14T20:59:33.521Z,6.46
2023-04-14T21:00:34.401Z,6.36
2023-04-14T21:01:34.471Z,6.24
2023-04-14T21:02:35.210Z,6.12
2023-04-14T21:03:35.403Z,6.11
2023-04-14T21:04:35.514Z,6.11
2023-04-14T21:05:36.066Z,6.17
2023-04-14T21:06:36.636Z,6.30
2023-04-14T21:07:37.179Z,6.39
2023-04-14T21:08:37.720Z,6.16
2023-04-14T21:09:38.273Z,6.09
2023-04-14T21:11:15.835Z,6.02
2023-04-14T21:11:39.059Z,6.08
2023-04-14T21:13:57.808Z,5.99
2023-04-14T21:15:55.568Z,5.80
2023-04-14T21:16:02.122Z,5.64
2023-04-14T21:16:59.309Z,5.62
2023-04-14T21:17:58.332Z,5.61
2023-04-14T21:18:58.903Z,5.44
2023-04-14T21:19:59.467Z,5.38
2023-04-14T21:21:00.018Z,5.39
2023-04-14T21:22:00.562Z,5.64
2023-04-14T21:23:01.113Z,5.87
2023-04-14T21:24:01.661Z,6.05
2023-04-14T21:25:02.251Z,6.28
2023-04-14T21:26:02.914Z,6.27
2023-04-14T21:27:03.480Z,6.27
2023-04-14T21:28:04.028Z,6.08
2023-04-14T21:29:04.826Z,6.17
2023-04-14T21:30:04.868Z,6.11
2023-04-14T21:31:05.558Z,6.12
2023-04-14T21:32:06.158Z,5.93
2023-04-14T21:33:07.725Z,5.94
2023-04-14T21:34:07.246Z,5.90
2023-04-14T21:35:07.841Z,5.97
2023-04-14T21:36:08.392Z,6.05
2023-04-14T21:37:08.941Z,6.14
2023-04-14T21:38:09.546Z,6.36
2023-04-14T21:39:10.155Z,6.46
2023-04-14T21:40:10.757Z,6.46
2023-04-14T21:41:11.351Z,6.33
2023-04-14T21:42:11.977Z,6.12
2023-04-14T21:43:12.572Z,6.05
2023-04-14T21:44:13.159Z,5.97